Time;durP1;ratioP1;P1;durP2;ratioP2;P2;SDS_P1;SDS_P2;PMS_P1;PMS_P2;Temp;Humidity;BMP_temperature;BMP_pressure;BME280_temperature;BME280_humidity;BME280_pressure;Samples;Min_cycle;Max_cycle;Signal;HPM_P1;HPM_P2
2021/06/09 00:00:50;;;;;;;28.88;21.40;;;16.10;99.20;;;;;;5035623;28;20045;-68
2021/06/09 00:03:16;;;;;;;25.42;18.98;;;16.10;99.20;;;;;;5036364;28;20065;-68
2021/06/09 00:05:42;;;;;;;26.00;19.13;;;16.10;99.50;;;;;;5035773;28;20037;-68
2021/06/09 00:08:08;;;;;;;28.55;19.60;;;16.10;99.40;;;;;;5035105;28;20048;-68
2021/06/09 00:10:33;;;;;;;24.88;19.35;;;16.10;99.50;;;;;;5035459;28;20428;-68
2021/06/09 00:13:00;;;;;;;21.88;18.35;;;16.10;99.50;;;;;;5035598;28;20045;-68
2021/06/09 00:15:28;;;;;;;23.50;17.98;;;16.10;99.60;;;;;;5035841;28;20108;-68
2021/06/09 00:17:54;;;;;;;21.35;17.77;;;16.10;99.70;;;;;;5035816;28;20099;-68
2021/06/09 00:20:22;;;;;;;23.02;17.65;;;16.10;99.60;;;;;;5035486;28;20078;-68
2021/06/09 00:22:48;;;;;;;19.83;16.42;;;16.10;99.60;;;;;;5035766;28;20068;-68
2021/06/09 00:25:17;;;;;;;19.13;16.42;;;16.10;99.60;;;;;;5035496;28;20378;-68
2021/06/09 00:27:49;;;;;;;24.35;17.67;;;16.00;99.60;;;;;;5035187;28;20099;-68
2021/06/09 00:30:19;;;;;;;22.95;17.63;;;16.00;99.70;;;;;;5034956;28;20448;-68
2021/06/09 00:32:45;;;;;;;22.95;17.45;;;16.00;99.90;;;;;;5035548;28;20041;-68
2021/06/09 00:35:12;;;;;;;20.50;16.77;;;16.00;99.90;;;;;;5035986;28;20045;-68
2021/06/09 00:37:38;;;;;;;25.40;18.17;;;16.00;99.90;;;;;;5035130;28;20038;-68
2021/06/09 00:40:07;;;;;;;21.50;17.52;;;15.90;99.90;;;;;;5034708;28;20355;-68
2021/06/09 00:42:34;;;;;;;24.50;18.05;;;15.90;99.90;;;;;;5035075;28;20069;-68
2021/06/09 00:45:00;;;;;;;28.77;19.60;;;15.90;99.90;;;;;;5035031;28;20033;-68
2021/06/09 00:47:28;;;;;;;21.38;18.40;;;15.90;99.90;;;;;;5034988;28;20037;-68
2021/06/09 00:49:54;;;;;;;22.85;19.15;;;15.90;99.90;;;;;;5035079;28;20500;-68
2021/06/09 00:52:26;;;;;;;25.02;18.83;;;15.80;99.90;;;;;;5033941;28;20033;-68
2021/06/09 00:54:52;;;;;;;24.30;18.67;;;15.80;99.90;;;;;;5034802;28;20038;-68
2021/06/09 00:57:18;;;;;;;24.20;18.05;;;15.80;99.90;;;;;;5034905;28;20094;-68
2021/06/09 00:59:44;;;;;;;23.83;19.30;;;15.90;99.90;;;;;;5034520;28;20042;-68
2021/06/09 01:02:11;;;;;;;24.05;18.50;;;15.80;99.90;;;;;;5035341;28;20053;-68
2021/06/09 01:04:37;;;;;;;21.38;18.17;;;15.80;99.90;;;;;;5034639;28;20044;-68
2021/06/09 01:07:03;;;;;;;24.30;17.92;;;15.90;99.90;;;;;;5034756;28;20037;-68
2021/06/09 01:09:31;;;;;;;24.13;16.88;;;15.90;99.90;;;;;;5034541;28;20395;-68
2021/06/09 01:11:57;;;;;;;21.13;17.15;;;15.90;99.90;;;;;;5034549;28;20489;-68
2021/06/09 01:14:32;;;;;;;19.40;16.13;;;15.80;99.90;;;;;;5034611;28;20136;-68
2021/06/09 01:16:58;;;;;;;17.83;15.48;;;15.80;99.90;;;;;;5034501;28;20116;-68
2021/06/09 01:19:24;;;;;;;19.50;15.45;;;15.70;99.90;;;;;;5033435;28;20041;-68
2021/06/09 01:21:50;;;;;;;24.95;17.73;;;15.70;99.90;;;;;;5035156;28;20048;-68
2021/06/09 01:24:16;;;;;;;20.10;15.90;;;15.70;99.90;;;;;;5034426;28;20041;-68
2021/06/09 01:26:44;;;;;;;23.48;17.55;;;15.70;99.90;;;;;;5034213;28;20072;-68
2021/06/09 01:29:10;;;;;;;20.85;16.85;;;15.70;99.90;;;;;;5033871;28;20045;-68
2021/06/09 01:31:37;;;;;;;21.23;17.00;;;15.70;99.90;;;;;;5034004;28;20072;-68
2021/06/09 01:34:06;;;;;;;18.92;15.68;;;15.70;99.90;;;;;;5034413;28;20037;-68
2021/06/09 01:36:37;;;;;;;18.08;16.05;;;15.60;99.90;;;;;;5034003;28;20040;-68
2021/06/09 01:39:15;;;;;;;23.25;16.60;;;15.60;99.90;;;;;;5034231;28;20080;-68
2021/06/09 01:41:49;;;;;;;20.20;15.55;;;15.60;99.90;;;;;;5034480;28;20037;-68
2021/06/09 01:44:40;;;;;;;22.73;16.23;;;15.70;99.90;;;;;;5033282;28;20060;-68
2021/06/09 01:47:07;;;;;;;18.02;15.25;;;15.60;99.90;;;;;;5034005;28;20417;-68
2021/06/09 01:49:33;;;;;;;17.73;14.40;;;15.60;99.90;;;;;;5032443;28;20393;-68
2021/06/09 01:51:59;;;;;;;19.48;15.98;;;15.60;99.90;;;;;;5033819;28;20401;-68
2021/06/09 01:54:25;;;;;;;19.10;14.63;;;15.50;99.90;;;;;;5034212;28;20045;-68
2021/06/09 01:56:52;;;;;;;19.05;15.18;;;15.50;99.90;;;;;;5032642;28;20493;-68
2021/06/09 01:59:20;;;;;;;19.50;14.18;;;15.50;99.90;;;;;;5033376;28;20038;-68
2021/06/09 02:01:49;;;;;;;16.92;15.13;;;15.50;99.90;;;;;;5032454;28;20072;-68
2021/06/09 02:04:17;;;;;;;19.83;14.10;;;15.50;99.90;;;;;;5033832;28;20427;-68
2021/06/09 02:06:47;;;;;;;16.70;14.20;;;15.50;99.80;;;;;;5034363;28;20041;-68
2021/06/09 02:09:34;;;;;;;17.02;14.85;;;15.50;99.90;;;;;;5032204;28;20489;-68
2021/06/09 02:12:00;;;;;;;16.52;13.82;;;15.50;99.90;;;;;;5034424;28;20052;-68
2021/06/09 02:14:27;;;;;;;17.60;13.32;;;15.50;99.90;;;;;;5033650;28;20065;-68
2021/06/09 02:16:53;;;;;;;17.65;13.52;;;15.40;99.90;;;;;;5033444;28;20037;-68
2021/06/09 02:19:22;;;;;;;16.30;14.35;;;15.40;99.90;;;;;;5033208;28;20440;-68
2021/06/09 02:21:48;;;;;;;18.52;14.98;;;15.40;99.90;;;;;;5033922;28;20041;-68
2021/06/09 02:24:16;;;;;;;16.30;13.00;;;15.40;99.60;;;;;;5032769;28;20470;-68
2021/06/09 02:26:42;;;;;;;16.05;12.45;;;15.40;99.40;;;;;;5033560;28;20049;-68
2021/06/09 02:29:10;;;;;;;15.32;12.38;;;15.30;99.10;;;;;;5031944;28;20045;-68
2021/06/09 02:31:37;;;;;;;14.25;12.32;;;15.40;99.10;;;;;;5032767;28;20129;-68
2021/06/09 02:34:12;;;;;;;15.68;12.93;;;15.30;99.10;;;;;;5033180;28;20041;-68
2021/06/09 02:36:39;;;;;;;15.02;12.65;;;15.40;99.00;;;;;;5033216;28;20045;-68
2021/06/09 02:39:05;;;;;;;15.50;12.00;;;15.40;98.80;;;;;;5033413;28;20049;-68
2021/06/09 02:41:31;;;;;;;14.45;11.48;;;15.30;98.50;;;;;;5033636;28;20553;-68
2021/06/09 02:43:58;;;;;;;12.65;10.75;;;15.30;98.40;;;;;;5033488;28;20037;-68
2021/06/09 02:46:33;;;;;;;14.75;11.63;;;15.30;98.30;;;;;;5033214;28;20504;-68
2021/06/09 02:49:23;;;;;;;14.32;12.07;;;15.30;98.50;;;;;;5032230;28;20052;-68
2021/06/09 02:52:17;;;;;;;14.63;10.88;;;15.30;98.60;;;;;;5033077;28;20044;-68
2021/06/09 02:55:08;;;;;;;15.07;11.38;;;15.20;98.70;;;;;;5032658;28;20049;-68
2021/06/09 02:57:57;;;;;;;12.85;10.50;;;15.20;98.70;;;;;;5033263;28;20049;-68
2021/06/09 03:00:32;;;;;;;16.90;10.57;;;15.20;98.60;;;;;;5032892;28;20041;-68
2021/06/09 03:03:11;;;;;;;13.38;11.27;;;15.20;98.20;;;;;;5033374;28;20045;-68
2021/06/09 03:06:03;;;;;;;14.23;10.63;;;15.20;97.80;;;;;;5032936;28;20116;-68
2021/06/09 03:08:56;;;;;;;11.82;9.68;;;15.20;97.90;;;;;;5032665;28;20042;-68
2021/06/09 03:11:30;;;;;;;12.23;9.98;;;15.20;98.40;;;;;;5033406;28;20041;-68
2021/06/09 03:17:16;;;;;;;12.57;10.00;;;15.20;98.80;;;;;;5032908;28;20091;-68
2021/06/09 03:20:11;;;;;;;11.77;10.23;;;15.10;98.90;;;;;;5032350;28;20038;-68
2021/06/09 03:23:07;;;;;;;11.05;9.88;;;15.10;98.90;;;;;;5033545;28;20041;-68
2021/06/09 03:26:09;;;;;;;13.55;9.63;;;15.10;99.40;;;;;;5032267;28;20038;-68
2021/06/09 03:28:44;;;;;;;12.55;10.07;;;15.00;99.10;;;;;;5031900;28;20037;-68
2021/06/09 03:31:15;;;;;;;11.98;10.45;;;15.00;98.90;;;;;;5033010;28;20061;-68
2021/06/09 03:33:46;;;;;;;15.20;9.90;;;15.00;98.90;;;;;;5033114;28;20037;-68
2021/06/09 03:36:33;;;;;;;10.98;9.82;;;15.00;98.90;;;;;;5031952;28;20038;-68
2021/06/09 03:39:04;;;;;;;11.38;10.18;;;15.00;98.90;;;;;;5032684;28;20531;-68
2021/06/09 03:41:53;;;;;;;11.93;9.52;;;15.00;98.80;;;;;;5032605;28;20501;-68
2021/06/09 03:44:27;;;;;;;12.27;9.48;;;15.00;98.40;;;;;;5036084;28;20136;-68
2021/06/09 03:46:55;;;;;;;13.73;9.23;;;15.00;98.60;;;;;;5036603;28;20470;-68
2021/06/09 03:49:24;;;;;;;13.57;9.40;;;15.00;98.60;;;;;;5036204;28;20116;-68
2021/06/09 03:51:54;;;;;;;;;;;15.00;98.40;;;;;;5037003;28;20133;-68
2021/06/09 03:54:41;;;;;;;9.50;8.30;;;15.00;98.10;;;;;;5036049;28;19941;-68
2021/06/09 03:57:31;;;;;;;10.65;8.63;;;15.00;98.30;;;;;;5035741;28;20041;-68
2021/06/09 03:59:58;;;;;;;9.85;8.00;;;15.10;98.10;;;;;;5035666;28;20046;-68
2021/06/09 04:02:25;;;;;;;9.95;7.82;;;15.10;98.20;;;;;;5036546;28;20509;-68
2021/06/09 04:04:55;;;;;;;10.25;7.88;;;15.10;98.40;;;;;;5034766;28;20484;-68
2021/06/09 04:07:26;;;;;;;11.77;8.05;;;15.10;98.60;;;;;;5036127;28;20531;-68
2021/06/09 04:09:56;;;;;;;10.80;8.33;;;15.10;98.70;;;;;;5035485;28;20380;-68
2021/06/09 04:12:23;;;;;;;8.32;7.43;;;15.20;98.80;;;;;;5035642;28;20323;-68
2021/06/09 04:14:51;;;;;;;11.35;8.48;;;15.20;98.60;;;;;;5035780;28;20041;-68
2021/06/09 04:17:28;;;;;;;9.60;8.57;;;15.20;98.30;;;;;;5035645;28;20045;-68
2021/06/09 04:20:01;;;;;;;8.95;7.22;;;15.30;98.30;;;;;;5035690;28;20041;-68
2021/06/09 04:22:27;;;;;;;9.18;8.05;;;15.30;98.40;;;;;;5035896;28;20052;-68
2021/06/09 04:24:54;;;;;;;10.65;8.32;;;15.40;98.40;;;;;;5035595;28;20076;-68
2021/06/09 04:27:21;;;;;;;11.73;9.23;;;15.40;98.60;;;;;;5036036;28;20041;-68
2021/06/09 04:29:48;;;;;;;9.65;8.65;;;15.50;98.60;;;;;;5034897;28;20041;-68
2021/06/09 04:32:14;;;;;;;11.98;9.00;;;15.50;98.70;;;;;;5035724;28;20114;-68
2021/06/09 04:34:45;;;;;;;12.27;8.25;;;15.60;98.80;;;;;;5034500;28;20033;-68
2021/06/09 04:37:13;;;;;;;10.30;8.05;;;15.60;99.20;;;;;;5035330;28;20519;-68
2021/06/09 04:39:40;;;;;;;10.20;8.50;;;15.70;98.90;;;;;;5033469;28;20040;-68
2021/06/09 04:42:07;;;;;;;9.73;7.63;;;15.80;98.60;;;;;;5035084;28;20048;-68
2021/06/09 04:44:34;;;;;;;10.20;8.23;;;15.90;98.60;;;;;;5035112;28;20084;-69
2021/06/09 04:47:01;;;;;;;11.98;8.45;;;16.00;98.30;;;;;;5035097;28;20037;-69
2021/06/09 04:49:32;;;;;;;8.15;7.35;;;16.20;98.10;;;;;;5034745;28;20052;-69
2021/06/09 04:52:00;;;;;;;9.80;7.95;;;16.40;97.20;;;;;;5035537;28;20034;-68
2021/06/09 04:54:27;;;;;;;8.30;7.40;;;16.60;96.50;;;;;;5034826;28;20041;-69
2021/06/09 04:56:53;;;;;;;11.75;9.15;;;16.80;96.20;;;;;;5034715;28;20473;-69
2021/06/09 04:59:19;;;;;;;10.27;8.05;;;17.00;95.70;;;;;;5034422;28;20061;-69
2021/06/09 05:01:45;;;;;;;9.30;7.78;;;17.20;94.80;;;;;;5035020;28;20465;-68
2021/06/09 05:04:10;;;;;;;9.18;7.43;;;17.40;94.30;;;;;;5034809;28;20041;-69
2021/06/09 05:06:36;;;;;;;9.98;7.70;;;17.60;93.90;;;;;;5035251;28;20029;-69
2021/06/09 05:09:05;;;;;;;14.20;8.77;;;17.80;93.50;;;;;;5033519;28;20124;-69
2021/06/09 05:11:38;;;;;;;10.07;7.80;;;18.00;93.20;;;;;;5034508;28;20111;-69
2021/06/09 05:14:11;;;;;;;10.07;7.30;;;18.20;92.50;;;;;;5033474;28;20041;-69
2021/06/09 05:16:39;;;;;;;12.90;8.15;;;18.30;92.10;;;;;;5034598;28;20065;-69
2021/06/09 05:19:07;;;;;;;9.80;7.72;;;18.50;91.60;;;;;;5034191;28;20405;-69
2021/06/09 05:21:37;;;;;;;11.57;7.22;;;18.80;91.30;;;;;;5035050;28;20060;-69
2021/06/09 05:24:03;;;;;;;9.57;7.00;;;19.00;90.60;;;;;;5033305;28;20044;-69
2021/06/09 05:26:31;;;;;;;8.80;6.63;;;19.20;90.20;;;;;;5034880;28;20037;-69
2021/06/09 05:29:01;;;;;;;10.20;5.78;;;19.40;89.20;;;;;;5033944;28;20049;-69
2021/06/09 05:31:29;;;;;;;10.13;6.45;;;19.60;87.50;;;;;;5034144;28;20492;-68
2021/06/09 05:33:56;;;;;;;9.45;6.35;;;19.70;87.00;;;;;;5034749;28;20454;-71
2021/06/09 05:36:22;;;;;;;9.13;5.97;;;19.80;86.30;;;;;;5034079;28;20438;-71
2021/06/09 05:38:48;;;;;;;9.32;6.28;;;19.90;86.10;;;;;;5033785;28;20083;-71
2021/06/09 05:41:14;;;;;;;9.13;6.15;;;20.00;85.70;;;;;;5033881;28;20081;-71
2021/06/09 05:43:40;;;;;;;8.02;6.00;;;20.10;85.60;;;;;;5034516;28;20114;-71
2021/06/09 05:46:08;;;;;;;8.95;6.03;;;20.20;85.30;;;;;;5033989;28;20426;-71
2021/06/09 05:48:41;;;;;;;6.90;5.97;;;20.30;85.10;;;;;;5034217;28;20124;-71
2021/06/09 05:51:09;;;;;;;10.27;6.97;;;20.50;84.40;;;;;;5033910;28;20124;-71
2021/06/09 05:53:35;;;;;;;6.93;5.78;;;20.60;84.00;;;;;;5033767;28;20037;-71
2021/06/09 05:56:01;;;;;;;7.43;4.85;;;20.70;82.30;;;;;;5034099;28;20093;-71
2021/06/09 05:58:28;;;;;;;8.25;6.85;;;20.90;81.90;;;;;;5033553;28;20042;-73
2021/06/09 06:01:00;;;;;;;9.75;5.97;;;20.90;82.20;;;;;;5033616;28;20044;-71
2021/06/09 06:03:28;;;;;;;6.45;5.18;;;21.20;79.90;;;;;;5033649;28;20041;-71
2021/06/09 06:05:59;;;;;;;8.38;5.70;;;21.20;80.30;;;;;;5033134;28;20394;-72
2021/06/09 06:08:26;;;;;;;11.15;6.72;;;21.40;79.80;;;;;;5033577;28;20044;-72
2021/06/09 06:10:53;;;;;;;8.48;6.15;;;21.70;81.60;;;;;;5033690;28;20103;-72
2021/06/09 06:13:20;;;;;;;8.63;5.95;;;21.90;81.20;;;;;;5033653;28;20044;-72
2021/06/09 06:15:47;;;;;;;7.93;5.57;;;22.00;80.00;;;;;;5033744;28;20484;-72
2021/06/09 06:18:38;;;;;;;8.23;5.53;;;22.20;78.70;;;;;;5032730;28;20045;-72
2021/06/09 06:21:12;;;;;;;6.30;5.07;;;22.20;77.60;;;;;;5032490;28;20069;-72
2021/06/09 06:23:39;;;;;;;7.35;5.82;;;22.20;77.60;;;;;;5034062;28;20041;-72
2021/06/09 06:26:07;;;;;;;6.07;5.28;;;22.30;77.80;;;;;;5033191;28;20068;-72
2021/06/09 06:28:34;;;;;;;7.53;5.85;;;22.50;77.50;;;;;;5032907;28;20048;-72
2021/06/09 06:31:03;;;;;;;8.43;5.50;;;22.40;76.20;;;;;;5033157;28;20136;-72
2021/06/09 06:33:30;;;;;;;8.00;6.45;;;22.60;76.40;;;;;;5034122;28;20044;-72
2021/06/09 06:35:58;;;;;;;8.38;6.15;;;22.90;76.40;;;;;;5033332;28;20065;-72
2021/06/09 06:38:24;;;;;;;8.02;5.05;;;22.90;75.50;;;;;;5033202;28;20124;-72
2021/06/09 06:40:50;;;;;;;8.65;5.10;;;22.90;74.60;;;;;;5032870;28;20064;-72
2021/06/09 06:43:19;;;;;;;8.13;5.53;;;23.30;75.50;;;;;;5033685;28;20459;-72
2021/06/09 06:45:45;;;;;;;5.55;5.05;;;23.50;75.10;;;;;;5033166;28;20554;-72
2021/06/09 06:48:11;;;;;;;6.70;5.45;;;23.90;74.40;;;;;;5033492;28;20045;-72
2021/06/09 06:50:37;;;;;;;6.15;5.30;;;23.80;74.00;;;;;;5031477;28;20086;-72
2021/06/09 06:53:07;;;;;;;6.70;6.00;;;23.70;73.60;;;;;;5032970;28;20044;-72
2021/06/09 06:55:37;;;;;;;7.10;6.32;;;23.70;74.50;;;;;;5033499;28;20095;-72
2021/06/09 06:58:05;;;;;;;7.32;6.63;;;23.80;74.80;;;;;;5032949;28;20038;-72
2021/06/09 07:00:31;;;;;;;9.27;6.18;;;23.50;74.10;;;;;;5032755;28;20041;-72
2021/06/09 07:03:01;;;;;;;7.20;5.25;;;23.70;74.90;;;;;;5033106;28;20530;-72
2021/06/09 07:05:32;;;;;;;7.30;4.90;;;23.70;74.10;;;;;;5032886;28;20042;-72
2021/06/09 07:08:01;;;;;;;6.95;5.00;;;23.90;73.50;;;;;;5033575;28;20041;-72
2021/06/09 07:10:31;;;;;;;7.85;6.07;;;23.80;72.90;;;;;;5032971;28;20038;-72
2021/06/09 07:12:59;;;;;;;8.32;5.55;;;24.20;72.70;;;;;;5032913;28;20033;-72
2021/06/09 07:15:27;;;;;;;6.00;5.15;;;24.30;73.00;;;;;;5033409;28;20038;-72
2021/06/09 07:17:56;;;;;;;6.88;6.10;;;24.30;73.20;;;;;;5035577;28;20041;-72
2021/06/09 07:20:25;;;;;;;8.27;6.22;;;24.50;73.30;;;;;;5036624;28;20045;-72
2021/06/09 07:22:53;;;;;;;8.77;5.95;;;24.70;71.60;;;;;;5037205;28;20052;-72
2021/06/09 07:25:20;;;;;;;6.80;5.13;;;24.70;71.00;;;;;;5037165;28;20037;-72
2021/06/09 07:27:50;;;;;;;6.70;5.70;;;25.00;71.20;;;;;;5037100;28;20041;-72
2021/06/09 07:30:18;;;;;;;6.78;5.30;;;25.10;71.00;;;;;;5035931;28;20124;-72
2021/06/09 07:32:46;;;;;;;5.82;5.15;;;25.40;70.70;;;;;;5036509;28;20048;-72
2021/06/09 07:35:14;;;;;;;8.05;5.88;;;25.40;70.00;;;;;;5036349;28;20091;-72
2021/06/09 07:37:47;;;;;;;6.13;5.18;;;25.30;69.90;;;;;;5036386;28;20128;-72
2021/06/09 07:40:19;;;;;;;6.07;4.68;;;25.40;69.50;;;;;;5036090;28;20037;-72
2021/06/09 07:42:50;;;;;;;5.22;4.40;;;25.70;69.60;;;;;;5036455;28;20045;-72
2021/06/09 07:45:19;;;;;;;7.45;5.22;;;25.90;69.90;;;;;;5036281;28;20416;-72
2021/06/09 07:47:56;;;;;;;6.00;4.40;;;26.00;69.10;;;;;;5036480;28;20048;-72
2021/06/09 07:50:33;;;;;;;6.65;4.53;;;26.30;70.30;;;;;;5036044;28;20041;-72
2021/06/09 07:53:06;;;;;;;6.05;5.13;;;26.50;69.80;;;;;;5036211;28;20540;-72
2021/06/09 07:55:34;;;;;;;5.80;4.53;;;26.70;68.10;;;;;;5035945;28;20037;-72
2021/06/09 07:58:02;;;;;;;5.53;4.63;;;26.50;67.80;;;;;;5035963;28;20045;-72
2021/06/09 08:00:29;;;;;;;6.55;5.03;;;26.40;68.50;;;;;;5035577;28;20045;-72
2021/06/09 08:02:56;;;;;;;5.20;4.10;;;26.40;69.90;;;;;;5035800;28;20375;-73
2021/06/09 08:05:24;;;;;;;5.85;4.85;;;26.40;71.70;;;;;;5035943;28;20042;-73
2021/06/09 08:07:51;;;;;;;6.07;5.43;;;26.50;71.30;;;;;;5035783;28;20044;-72
2021/06/09 08:10:18;;;;;;;5.90;5.30;;;26.40;68.30;;;;;;5036093;28;20045;-72
2021/06/09 08:12:44;;;;;;;5.97;4.75;;;26.50;68.60;;;;;;5036385;28;20038;-72
2021/06/09 08:15:14;;;;;;;7.00;5.18;;;26.50;68.40;;;;;;5035696;28;20091;-72
2021/06/09 08:17:46;;;;;;;7.28;5.57;;;27.00;68.10;;;;;;5036162;28;20417;-73
2021/06/09 08:20:20;;;;;;;7.85;5.55;;;27.10;69.70;;;;;;5034383;28;20443;-72
2021/06/09 08:22:48;;;;;;;5.88;4.80;;;26.80;67.10;;;;;;5035532;28;20562;-73
2021/06/09 08:25:19;;;;;;;6.05;5.38;;;27.20;68.30;;;;;;5035456;28;20128;-73
2021/06/09 08:27:48;;;;;;;6.63;5.63;;;27.30;67.50;;;;;;5036038;28;20116;-72
2021/06/09 08:30:16;;;;;;;7.60;6.80;;;27.00;65.80;;;;;;5034778;28;20041;-72
2021/06/09 08:32:43;;;;;;;12.45;7.15;;;26.90;67.30;;;;;;5035781;28;20040;-72
2021/06/09 08:35:10;;;;;;;6.70;5.90;;;26.60;66.80;;;;;;5035255;28;20041;-73
2021/06/09 08:37:49;;;;;;;6.15;5.25;;;26.90;69.50;;;;;;5035168;28;20401;-72
2021/06/09 08:40:18;;;;;;;7.32;6.38;;;27.00;71.40;;;;;;5033618;28;20450;-72
2021/06/09 08:42:46;;;;;;;7.80;5.93;;;27.10;68.90;;;;;;5035600;28;20041;-72
2021/06/09 08:45:13;;;;;;;7.22;6.53;;;27.40;67.70;;;;;;5035256;28;20041;-72
2021/06/09 08:47:39;;;;;;;8.93;6.57;;;27.40;65.10;;;;;;5035109;28;20038;-72
2021/06/09 08:50:11;;;;;;;7.47;5.60;;;27.50;67.70;;;;;;5034631;28;20045;-72
2021/06/09 08:52:49;;;;;;;7.95;5.97;;;27.80;66.50;;;;;;5035278;28;20037;-71
2021/06/09 08:55:18;;;;;;;7.60;6.28;;;27.90;65.80;;;;;;5035240;28;20167;-72
2021/06/09 08:57:45;;;;;;;8.60;7.82;;;28.10;67.60;;;;;;5034856;28;20401;-72
2021/06/09 09:00:14;;;;;;;8.25;7.45;;;28.10;67.50;;;;;;5034476;28;20121;-72
2021/06/09 09:02:40;;;;;;;9.75;8.75;;;28.10;66.00;;;;;;5034728;28;20069;-72
2021/06/09 09:05:08;;;;;;;11.90;9.63;;;28.20;66.90;;;;;;5034943;28;20039;-73
2021/06/09 09:07:35;;;;;;;9.80;8.80;;;28.20;66.10;;;;;;5034638;28;20038;-71
2021/06/09 09:10:05;;;;;;;9.48;8.55;;;27.90;66.80;;;;;;5033201;28;20098;-73
2021/06/09 09:12:33;;;;;;;9.07;8.10;;;28.30;66.00;;;;;;5034895;28;20037;-73
2021/06/09 09:14:59;;;;;;;8.88;7.97;;;28.10;67.30;;;;;;5033503;28;20044;-72
2021/06/09 09:17:25;;;;;;;10.15;8.90;;;28.10;67.00;;;;;;5034599;28;20045;-73
2021/06/09 09:19:53;;;;;;;8.88;7.80;;;28.00;69.30;;;;;;5034001;28;20041;-72
2021/06/09 09:22:30;;;;;;;11.02;8.02;;;28.10;69.00;;;;;;5034502;28;20037;-73
2021/06/09 09:24:56;;;;;;;9.55;7.97;;;28.10;69.10;;;;;;5034399;28;20485;-72
2021/06/09 09:27:29;;;;;;;8.63;7.68;;;28.10;69.70;;;;;;5034839;28;20048;-72
2021/06/09 09:30:05;;;;;;;10.50;8.90;;;28.00;69.60;;;;;;5033880;28;20044;-73
2021/06/09 09:32:32;;;;;;;8.98;7.78;;;28.00;67.50;;;;;;5033412;28;20103;-73
2021/06/09 09:35:12;;;;;;;9.10;8.27;;;27.90;68.10;;;;;;5034506;28;20124;-73
2021/06/09 09:37:40;;;;;;;9.48;7.72;;;28.00;68.20;;;;;;5034040;28;20160;-72
2021/06/09 09:40:17;;;;;;;7.88;7.10;;;27.90;67.30;;;;;;5013534;28;20042;-72
2021/06/09 09:42:47;;;;;;;8.02;7.13;;;28.10;66.40;;;;;;5025702;28;20131;-72
2021/06/09 09:45:27;;;;;;;10.77;9.50;;;28.00;68.30;;;;;;5034009;28;20057;-72
2021/06/09 09:48:09;;;;;;;8.23;7.32;;;27.60;65.80;;;;;;5033921;28;20037;-72
2021/06/09 09:50:45;;;;;;;8.18;7.10;;;27.50;72.30;;;;;;5033613;28;20040;-73
2021/06/09 09:53:23;;;;;;;8.82;7.40;;;27.40;66.90;;;;;;5034420;28;20037;-72
2021/06/09 09:56:05;;;;;;;9.18;6.90;;;27.50;68.90;;;;;;5032746;28;20094;-72
2021/06/09 09:58:33;;;;;;;6.93;5.78;;;27.60;69.60;;;;;;5033988;28;20042;-72
2021/06/09 10:01:20;;;;;;;8.00;6.65;;;27.60;69.00;;;;;;5033828;28;20060;-72
2021/06/09 10:03:52;;;;;;;9.90;8.70;;;27.70;64.70;;;;;;5032403;28;20430;-72
2021/06/09 10:06:29;;;;;;;9.77;8.27;;;27.60;66.30;;;;;;5033686;28;20497;-72
2021/06/09 10:09:06;;;;;;;7.95;7.13;;;27.30;67.20;;;;;;5033788;28;20049;-72
2021/06/09 10:11:32;;;;;;;11.13;8.70;;;27.40;67.50;;;;;;5033616;28;20525;-72
2021/06/09 10:13:58;;;;;;;10.95;7.88;;;27.00;67.70;;;;;;5033487;28;20120;-72
2021/06/09 10:16:33;;;;;;;8.88;8.13;;;27.10;70.70;;;;;;5033520;28;20091;-73
2021/06/09 10:19:03;;;;;;;10.02;6.95;;;27.10;70.20;;;;;;5033292;28;20037;-73
2021/06/09 10:21:34;;;;;;;8.88;7.28;;;26.90;69.70;;;;;;5034082;28;20045;-72
2021/06/09 10:24:06;;;;;;;6.88;6.22;;;27.00;69.80;;;;;;5033824;28;20037;-72
2021/06/09 10:26:41;;;;;;;9.02;8.10;;;26.90;73.00;;;;;;5033460;28;20434;-72
2021/06/09 10:29:17;;;;;;;12.20;8.35;;;26.90;71.40;;;;;;5031847;28;20132;-72
2021/06/09 10:31:49;;;;;;;8.20;6.97;;;26.90;66.80;;;;;;5033254;28;20044;-73
2021/06/09 10:34:15;;;;;;;10.40;8.00;;;27.30;69.60;;;;;;5033385;28;20042;-73
2021/06/09 10:36:47;;;;;;;9.27;6.97;;;27.40;69.00;;;;;;5033700;28;20095;-73
2021/06/09 10:39:14;;;;;;;7.78;7.05;;;27.60;66.20;;;;;;5033241;28;20068;-73
2021/06/09 10:41:43;;;;;;;9.40;7.80;;;27.60;67.40;;;;;;5033728;28;20464;-73
2021/06/09 10:44:11;;;;;;;10.77;8.15;;;27.50;67.80;;;;;;5033869;28;20474;-74
2021/06/09 10:46:40;;;;;;;8.63;7.03;;;27.40;67.80;;;;;;5032745;28;20080;-74
2021/06/09 10:49:06;;;;;;;10.18;7.88;;;27.40;69.30;;;;;;5032949;28;20124;-74
2021/06/09 10:51:32;;;;;;;9.52;7.78;;;27.40;69.70;;;;;;5033796;28;20042;-74
2021/06/09 10:54:02;;;;;;;8.45;7.55;;;27.40;69.00;;;;;;5035965;28;20087;-73
2021/06/09 10:56:28;;;;;;;8.88;7.68;;;27.40;71.20;;;;;;5037912;28;20091;-74
2021/06/09 10:58:54;;;;;;;8.95;7.40;;;27.40;70.20;;;;;;5036725;28;20488;-73
2021/06/09 11:01:22;;;;;;;9.25;8.25;;;27.50;68.70;;;;;;5035919;28;20033;-74
2021/06/09 11:03:53;;;;;;;10.23;9.18;;;27.50;69.70;;;;;;5036922;28;20033;-73
2021/06/09 11:06:32;;;;;;;9.55;8.65;;;27.60;69.10;;;;;;5037313;28;20178;-73
2021/06/09 11:09:14;;;;;;;9.45;7.68;;;27.50;68.20;;;;;;5036731;28;20045;-73
2021/06/09 11:11:40;;;;;;;9.90;8.90;;;27.50;68.60;;;;;;5036766;28;20088;-74
2021/06/09 11:14:18;;;;;;;16.83;9.27;;;27.00;68.10;;;;;;5037162;28;20041;-73
2021/06/09 11:16:53;;;;;;;11.57;8.73;;;26.90;68.00;;;;;;5037040;28;20102;-74
2021/06/09 11:19:34;;;;;;;10.48;9.35;;;26.90;67.70;;;;;;5036737;28;20120;-74
2021/06/09 11:22:22;;;;;;;9.48;8.57;;;26.90;69.10;;;;;;5036676;28;20061;-74
2021/06/09 11:25:06;;;;;;;9.90;8.90;;;26.90;69.90;;;;;;5037397;28;20033;-73
2021/06/09 11:27:32;;;;;;;9.85;8.45;;;27.20;66.20;;;;;;5036773;28;20091;-73
2021/06/09 11:30:00;;;;;;;11.07;8.98;;;27.30;67.20;;;;;;5036308;28;20084;-73
2021/06/09 11:32:26;;;;;;;11.02;8.98;;;27.20;66.50;;;;;;5037151;28;20450;-73
2021/06/09 11:34:59;;;;;;;9.63;8.07;;;27.30;67.30;;;;;;5036633;28;20065;-73
2021/06/09 11:37:29;;;;;;;9.13;7.32;;;27.50;69.50;;;;;;5018937;28;20378;-72
2021/06/09 11:39:59;;;;;;;9.70;8.80;;;27.50;68.30;;;;;;5036582;28;20065;-73
2021/06/09 11:42:27;;;;;;;;;;;27.50;69.80;;;;;;5037547;28;20045;-73
2021/06/09 11:44:56;;;;;;;10.77;9.60;;;27.40;71.20;;;;;;5036224;28;19917;-73
2021/06/09 11:47:27;;;;;;;10.35;9.35;;;27.40;69.00;;;;;;5036425;28;20060;-73
2021/06/09 11:50:12;;;;;;;9.55;8.18;;;27.20;67.80;;;;;;5035875;28;20046;-73
2021/06/09 11:52:57;;;;;;;10.48;9.48;;;27.50;68.30;;;;;;5036088;28;20060;-73
2021/06/09 11:55:25;;;;;;;;;;;27.30;68.10;;;;;;5037262;28;20037;-73
2021/06/09 11:58:10;;;;;;;11.23;9.50;;;27.40;69.60;;;;;;5036086;28;20008;-73
2021/06/09 12:01:16;;;;;;;13.30;11.68;;;27.20;68.40;;;;;;5035972;28;20034;-73
2021/06/09 12:03:42;;;;;;;11.75;10.55;;;26.80;68.80;;;;;;5013105;28;20052;-74
2021/06/09 12:06:20;;;;;;;13.18;11.75;;;26.80;67.60;;;;;;5014315;28;20041;-74
2021/06/09 12:08:49;;;;;;;12.25;10.80;;;26.90;67.60;;;;;;5017042;28;20069;-74
2021/06/09 12:11:16;;;;;;;13.20;10.52;;;26.90;68.80;;;;;;5035653;28;20042;-73
2021/06/09 12:13:44;;;;;;;14.27;10.10;;;26.80;68.10;;;;;;5035747;28;20041;-73
2021/06/09 12:16:16;;;;;;;15.07;11.88;;;26.70;69.30;;;;;;5035462;28;20041;-74
2021/06/09 12:18:46;;;;;;;;;;;26.60;69.00;;;;;;5034899;28;20083;-73
2021/06/09 12:21:15;;;;;;;11.85;10.65;;;26.50;65.90;;;;;;5034706;28;20011;-73
2021/06/09 12:23:59;;;;;;;15.07;12.13;;;26.70;67.60;;;;;;5033051;28;20099;-73
2021/06/09 12:26:25;;;;;;;12.63;10.43;;;26.60;68.60;;;;;;5034054;28;20168;-74
2021/06/09 12:29:05;;;;;;;12.82;11.52;;;26.70;70.40;;;;;;5034316;28;20119;-74
2021/06/09 12:31:35;;;;;;;11.85;10.65;;;26.60;68.00;;;;;;5035281;28;20119;-74
2021/06/09 12:34:01;;;;;;;13.82;12.43;;;26.30;69.20;;;;;;5035153;28;20034;-74
2021/06/09 12:36:27;;;;;;;12.43;11.18;;;26.10;69.60;;;;;;5035949;28;20045;-74
2021/06/09 12:38:53;;;;;;;13.32;11.93;;;26.00;70.70;;;;;;5034726;28;20037;-74
2021/06/09 12:41:29;;;;;;;11.65;10.52;;;26.00;70.80;;;;;;5035151;28;20489;-74
2021/06/09 12:43:59;;;;;;;12.93;10.95;;;26.10;69.60;;;;;;5034585;28;20037;-73
2021/06/09 12:46:27;;;;;;;14.73;11.20;;;26.30;70.90;;;;;;5035384;28;20037;-73
2021/06/09 12:48:52;;;;;;;12.50;11.23;;;26.40;70.20;;;;;;5035299;28;20159;-74
2021/06/09 12:51:18;;;;;;;11.85;10.63;;;26.50;69.00;;;;;;5034883;28;20064;-73
2021/06/09 12:53:44;;;;;;;11.50;10.40;;;26.60;70.00;;;;;;5034917;28;20103;-74
2021/06/09 12:56:10;;;;;;;13.00;11.60;;;26.70;70.20;;;;;;5034905;28;20045;-74
2021/06/09 12:58:38;;;;;;;13.20;11.77;;;26.70;70.10;;;;;;5033684;28;20041;-74